createdAt,value
2023-02-24T00:00:32.077Z,100749.00
2023-02-24T00:03:05.805Z,100756.84
2023-02-24T00:05:39.225Z,100756.03
2023-02-24T00:08:07.132Z,100748.16
2023-02-24T00:10:37.533Z,100743.19
2023-02-24T00:13:07.570Z,100740.34
2023-02-24T00:15:35.452Z,100736.84
2023-02-24T00:18:07.116Z,100739.34
2023-02-24T00:20:35.719Z,100751.56
2023-02-24T00:23:03.951Z,100746.06
2023-02-24T00:25:31.875Z,100740.50
2023-02-24T00:28:01.698Z,100736.72
2023-02-24T00:30:33.032Z,100735.22
2023-02-24T00:33:03.350Z,100722.41
2023-02-24T00:35:32.173Z,100721.88
2023-02-24T00:38:00.904Z,100717.88
2023-02-24T00:40:30.731Z,100726.09
2023-02-24T00:43:00.644Z,100728.03
2023-02-24T00:45:30.874Z,100723.97
2023-02-24T00:48:00.235Z,100730.19
2023-02-24T00:50:28.160Z,100728.50
2023-02-24T00:52:56.278Z,100730.31
2023-02-24T00:55:24.431Z,100722.63
2023-02-24T00:57:53.840Z,100724.66
2023-02-24T01:00:23.452Z,100731.34
2023-02-24T01:02:51.381Z,100732.78
2023-02-24T01:05:21.211Z,100722.50
2023-02-24T01:07:49.108Z,100713.56
2023-02-24T01:10:18.286Z,100709.75
2023-02-24T01:12:51.037Z,100710.47
2023-02-24T01:15:22.898Z,100709.84
2023-02-24T01:17:50.867Z,100713.56
2023-02-24T01:20:20.281Z,100711.97
2023-02-24T01:22:50.125Z,100706.00
2023-02-24T01:25:20.193Z,100709.91
2023-02-24T01:27:48.112Z,100713.38
2023-02-24T01:30:17.612Z,100708.44
2023-02-24T01:32:47.330Z,100707.59
2023-02-24T01:35:15.916Z,100709.91
2023-02-24T01:37:45.597Z,100707.00
2023-02-24T01:40:21.030Z,100717.16
2023-02-24T01:42:49.382Z,100695.56
2023-02-24T01:45:25.064Z,100692.66
2023-02-24T01:47:54.982Z,100699.94
2023-02-24T01:50:26.221Z,100693.72
2023-02-24T01:52:58.796Z,100683.41
2023-02-24T01:55:32.307Z,100693.03
2023-02-24T01:58:04.933Z,100696.84
2023-02-24T02:00:38.983Z,100692.06
2023-02-24T02:03:13.156Z,100688.41
2023-02-24T02:05:45.199Z,100690.69
2023-02-24T02:08:15.469Z,100679.84
2023-02-24T02:10:45.242Z,100678.03
2023-02-24T02:13:14.945Z,100675.91
2023-02-24T02:15:56.787Z,100673.69
2023-02-24T02:18:38.271Z,100681.09
2023-02-24T02:21:51.495Z,100672.34
2023-02-24T02:24:28.360Z,100677.00
2023-02-24T02:27:36.915Z,100663.22
2023-02-24T02:30:45.834Z,100669.56
2023-02-24T02:33:39.486Z,100665.94
2023-02-24T02:36:17.659Z,100664.56
2023-02-24T02:38:54.538Z,100665.91
2023-02-24T02:41:28.878Z,100666.19
2023-02-24T02:44:07.482Z,100668.97
2023-02-24T02:46:43.065Z,100672.72
2023-02-24T02:49:18.943Z,100666.75
2023-02-24T02:51:52.715Z,100658.00
2023-02-24T02:54:29.735Z,100665.78
2023-02-24T02:57:03.258Z,100652.41
2023-02-24T02:59:35.074Z,100658.28
2023-02-24T03:02:14.891Z,100655.81
2023-02-24T03:04:48.608Z,100653.22
2023-02-24T03:07:19.973Z,100654.72
2023-02-24T03:09:56.241Z,100659.50
2023-02-24T03:12:26.675Z,100654.13
2023-02-24T03:14:59.447Z,100651.13
2023-02-24T03:17:31.580Z,100655.03
2023-02-24T03:20:15.543Z,100650.44
2023-02-24T03:22:51.962Z,100638.38
2023-02-24T03:25:24.671Z,100636.53
2023-02-24T03:27:57.053Z,100632.44
2023-02-24T03:30:30.318Z,100631.38
2023-02-24T03:33:03.573Z,100631.13
2023-02-24T03:35:38.165Z,100627.06
2023-02-24T03:38:10.201Z,100629.19
2023-02-24T03:40:39.255Z,100619.22
2023-02-24T03:43:16.995Z,100613.38
2023-02-24T03:45:46.663Z,100612.00
2023-02-24T03:48:16.020Z,100615.28
2023-02-24T03:50:46.811Z,100616.03
2023-02-24T03:53:54.506Z,100604.47
2023-02-24T03:56:29.966Z,100606.59
2023-02-24T03:59:13.436Z,100606.97
2023-02-24T04:01:51.956Z,100611.13
2023-02-24T04:04:33.203Z,100599.88
2023-02-24T04:07:16.267Z,100591.88
2023-02-24T04:09:51.167Z,100584.28
2023-02-24T04:12:26.709Z,100588.97
2023-02-24T04:15:08.083Z,100590.72
2023-02-24T04:17:43.112Z,100586.72
2023-02-24T04:20:16.736Z,100584.41
2023-02-24T04:22:54.916Z,100576.50
2023-02-24T04:25:26.743Z,100580.56
2023-02-24T04:27:59.288Z,100571.50
2023-02-24T04:30:32.076Z,100569.78
2023-02-24T04:33:00.227Z,100571.09
2023-02-24T04:35:29.052Z,100572.56
2023-02-24T04:37:57.949Z,100566.88
2023-02-24T04:40:27.843Z,100564.22
2023-02-24T04:42:55.989Z,100567.75
2023-02-24T04:45:26.161Z,100564.22
2023-02-24T04:48:01.033Z,100561.00
2023-02-24T04:50:31.023Z,100557.38
2023-02-24T04:53:01.603Z,100563.25
2023-02-24T04:55:33.243Z,100542.59
2023-02-24T04:58:02.314Z,100540.97
2023-02-24T05:00:35.309Z,100530.50
2023-02-24T05:03:04.640Z,100533.72
2023-02-24T05:05:34.286Z,100536.88
2023-02-24T05:08:04.175Z,100533.75
2023-02-24T05:10:38.871Z,100526.50
2023-02-24T05:13:07.804Z,100523.63
2023-02-24T05:15:40.683Z,100520.16
2023-02-24T05:18:14.099Z,100511.47
2023-02-24T05:21:01.949Z,100509.91
2023-02-24T05:23:31.857Z,100518.31
2023-02-24T05:26:02.477Z,100507.44
2023-02-24T05:28:31.799Z,100501.78
2023-02-24T05:31:08.414Z,100509.03
2023-02-24T05:33:37.740Z,100508.66
2023-02-24T05:36:08.550Z,100500.72
2023-02-24T05:38:38.126Z,100494.44
2023-02-24T05:41:08.953Z,100505.19
2023-02-24T05:43:41.652Z,100493.09
2023-02-24T05:46:09.610Z,100486.81
2023-02-24T05:48:37.991Z,100488.34
2023-02-24T05:51:08.223Z,100485.88
2023-02-24T05:53:36.352Z,100484.38
2023-02-24T05:56:05.981Z,100483.56
2023-02-24T05:58:36.464Z,100489.25
2023-02-24T06:01:16.167Z,100481.00
2023-02-24T06:03:47.900Z,100471.03
2023-02-24T06:06:16.426Z,100477.63
2023-02-24T06:08:50.020Z,100469.38
2023-02-24T06:11:19.079Z,100478.03
2023-02-24T06:13:49.019Z,100468.66
2023-02-24T06:16:18.825Z,100462.94
2023-02-24T06:18:49.876Z,100461.41
2023-02-24T06:21:17.926Z,100458.03
2023-02-24T06:23:46.280Z,100464.13
2023-02-24T06:26:19.253Z,100455.25
2023-02-24T06:28:49.907Z,100457.56
2023-02-24T06:31:18.069Z,100447.88
2023-02-24T06:33:45.999Z,100464.06
2023-02-24T06:36:14.674Z,100451.69
2023-02-24T06:38:43.236Z,100440.03
2023-02-24T06:41:11.899Z,100442.03
2023-02-24T06:43:40.572Z,100439.81
2023-02-24T06:46:11.047Z,100440.53
2023-02-24T06:48:39.221Z,100442.47
2023-02-24T06:51:08.561Z,100429.19
2023-02-24T06:53:36.514Z,100424.75
2023-02-24T06:56:14.854Z,100422.09
2023-02-24T06:58:45.058Z,100426.78
2023-02-24T07:01:16.015Z,100427.31
2023-02-24T07:04:02.643Z,100420.31
2023-02-24T07:06:32.044Z,100415.78
2023-02-24T07:09:00.497Z,100416.03
2023-02-24T07:11:29.972Z,100408.78
2023-02-24T07:13:59.212Z,100399.97
2023-02-24T07:16:30.623Z,100406.25
2023-02-24T07:19:02.631Z,100399.25
2023-02-24T07:21:39.511Z,100408.69
2023-02-24T07:24:08.994Z,100398.47
2023-02-24T07:26:41.587Z,100388.38
2023-02-24T07:29:11.418Z,100392.19
2023-02-24T07:31:42.957Z,100380.69
2023-02-24T07:34:15.091Z,100370.59
2023-02-24T07:36:49.297Z,100373.25
2023-02-24T07:39:18.355Z,100360.84
2023-02-24T07:41:49.515Z,100365.13
2023-02-24T07:44:19.121Z,100358.56
2023-02-24T07:46:49.339Z,100357.72
2023-02-24T07:49:20.073Z,100343.06
2023-02-24T07:51:52.481Z,100348.19
2023-02-24T07:54:21.146Z,100338.00
2023-02-24T07:56:56.726Z,100328.50
2023-02-24T07:59:27.417Z,100325.19
2023-02-24T08:01:57.386Z,100318.38
2023-02-24T08:04:27.626Z,100317.22
2023-02-24T08:07:12.560Z,100307.97
2023-02-24T08:10:03.261Z,100312.56
2023-02-24T08:12:31.177Z,100295.63
2023-02-24T08:15:00.222Z,100297.06
2023-02-24T08:17:29.533Z,100291.06
2023-02-24T08:20:21.922Z,100283.16
2023-02-24T08:22:53.373Z,100283.72
2023-02-24T08:25:23.053Z,100276.47
2023-02-24T08:28:12.257Z,100269.34
2023-02-24T08:30:45.615Z,100271.84
2023-02-24T08:33:20.321Z,100261.59
2023-02-24T08:35:53.005Z,100261.94
2023-02-24T08:38:25.904Z,100246.75
2023-02-24T08:40:55.581Z,100248.78
2023-02-24T08:43:32.996Z,100250.56
2023-02-24T08:46:04.675Z,100257.56
2023-02-24T08:48:42.150Z,100245.22
2023-02-24T08:51:15.048Z,100235.72
2023-02-24T08:53:43.762Z,100220.72
2023-02-24T08:56:13.784Z,100235.22
2023-02-24T08:58:47.291Z,100229.47
2023-02-24T09:01:20.531Z,100222.22
2023-02-24T09:03:50.978Z,100218.44
2023-02-24T09:06:25.428Z,100214.13
2023-02-24T09:09:17.159Z,100199.94
2023-02-24T09:11:46.697Z,100210.00
2023-02-24T09:14:27.293Z,100197.16
2023-02-24T09:17:03.194Z,100192.44
2023-02-24T09:19:54.820Z,100186.19
2023-02-24T09:22:32.460Z,100188.44
2023-02-24T09:25:23.963Z,100182.88
2023-02-24T09:27:55.275Z,100187.16
2023-02-24T09:30:39.011Z,100171.19
2023-02-24T09:33:08.908Z,100176.34
2023-02-24T09:35:41.863Z,100169.81
2023-02-24T09:38:09.853Z,100171.28
2023-02-24T09:40:48.778Z,100168.47
2023-02-24T09:43:21.111Z,100176.22
2023-02-24T09:46:14.343Z,100159.31
2023-02-24T09:48:51.490Z,100159.31
2023-02-24T09:51:28.820Z,100146.63
2023-02-24T09:54:01.936Z,100136.38
2023-02-24T09:56:37.324Z,100135.41
2023-02-24T09:59:13.690Z,100130.59
2023-02-24T10:01:46.774Z,100130.72
2023-02-24T10:04:31.568Z,100122.13
2023-02-24T10:07:06.255Z,100131.50
2023-02-24T10:09:38.536Z,100124.97
2023-02-24T10:12:11.720Z,100118.53
2023-02-24T10:14:44.669Z,100109.50
2023-02-24T10:17:24.353Z,100119.84
2023-02-24T10:20:00.149Z,100106.13
2023-02-24T10:22:51.508Z,100095.13
2023-02-24T10:25:36.146Z,100097.41
2023-02-24T10:28:16.969Z,100078.78
2023-02-24T10:31:01.634Z,100085.69
2023-02-24T10:33:38.785Z,100084.34
2023-02-24T10:36:12.580Z,100085.41
2023-02-24T10:38:45.375Z,100080.47
2023-02-24T10:41:14.695Z,100069.94
2023-02-24T10:43:53.934Z,100066.41
2023-02-24T10:46:41.136Z,100056.00
2023-02-24T10:49:16.518Z,100042.72
2023-02-24T10:51:52.345Z,100044.09
2023-02-24T10:55:05.120Z,100059.16
2023-02-24T10:57:44.737Z,100050.41
2023-02-24T11:00:32.585Z,100045.84
2023-02-24T11:03:10.550Z,100053.84
2023-02-24T11:05:44.279Z,100044.16
2023-02-24T11:08:32.899Z,100057.47
2023-02-24T11:11:07.332Z,100065.63
2023-02-24T11:13:55.098Z,100057.66
2023-02-24T11:16:40.357Z,100052.88
2023-02-24T11:19:08.969Z,100049.66
2023-02-24T11:21:38.756Z,100041.34
2023-02-24T11:24:07.778Z,100035.03
2023-02-24T11:26:41.788Z,100039.78
2023-02-24T11:29:32.603Z,100029.16
2023-02-24T11:32:16.952Z,100031.50
2023-02-24T11:34:52.020Z,100024.78
2023-02-24T11:37:36.040Z,100032.78
2023-02-24T11:40:09.853Z,100024.13
2023-02-24T11:42:46.240Z,100016.38
2023-02-24T11:45:26.256Z,100014.59
2023-02-24T11:47:58.478Z,99996.56
2023-02-24T11:50:43.630Z,100002.50
2023-02-24T11:53:23.837Z,99995.66
2023-02-24T11:55:59.230Z,99989.38
2023-02-24T11:58:36.643Z,99986.94
2023-02-24T12:01:16.027Z,99990.84
2023-02-24T12:03:56.216Z,99971.00
2023-02-24T12:06:31.321Z,99965.78
2023-02-24T12:09:07.747Z,99966.75
2023-02-24T12:11:41.653Z,99960.31
2023-02-24T12:14:23.431Z,99962.13
2023-02-24T12:16:57.931Z,99942.09
2023-02-24T12:19:31.636Z,99937.00
2023-02-24T12:22:05.853Z,99942.09
2023-02-24T12:24:37.388Z,99934.28
2023-02-24T12:27:18.374Z,99935.47
2023-02-24T12:30:06.373Z,99923.25
2023-02-24T12:33:01.762Z,99928.94
2023-02-24T12:35:39.960Z,99919.09
2023-02-24T12:38:22.136Z,99923.22
2023-02-24T12:40:56.904Z,99916.06
2023-02-24T12:43:31.581Z,99906.31
2023-02-24T12:46:07.125Z,99908.84
2023-02-24T12:48:59.782Z,99895.00
2023-02-24T12:51:35.160Z,99900.78
2023-02-24T12:54:10.394Z,99881.03
2023-02-24T12:56:47.834Z,99882.78
2023-02-24T12:59:21.276Z,99872.13
2023-02-24T13:02:02.343Z,99872.34
2023-02-24T13:04:47.782Z,99868.25
2023-02-24T13:07:33.781Z,99847.03
2023-02-24T13:10:11.103Z,99840.25
2023-02-24T13:12:43.777Z,99833.94
2023-02-24T13:15:20.780Z,99837.16
2023-02-24T13:17:52.099Z,99839.00
2023-02-24T13:20:32.597Z,99830.22
2023-02-24T13:23:03.507Z,99815.66
2023-02-24T13:25:35.050Z,99814.75
2023-02-24T13:28:05.402Z,99823.66
2023-02-24T13:30:39.167Z,99812.53
2023-02-24T13:33:29.254Z,99812.03
2023-02-24T13:36:12.688Z,99800.00
2023-02-24T13:38:42.939Z,99802.44
2023-02-24T13:41:23.861Z,99793.84
2023-02-24T13:43:57.939Z,99790.44
2023-02-24T13:46:29.863Z,99786.19
2023-02-24T13:49:33.050Z,99788.28
2023-02-24T13:52:04.904Z,99781.97
2023-02-24T13:55:11.030Z,99783.59
2023-02-24T13:57:49.930Z,99773.59
2023-02-24T14:00:29.012Z,99759.84
2023-02-24T14:02:58.139Z,99768.59
2023-02-24T14:05:31.138Z,99758.59
2023-02-24T14:07:59.842Z,99758.19
2023-02-24T14:10:29.707Z,99753.84
2023-02-24T14:13:07.482Z,99744.63
2023-02-24T14:15:36.175Z,99736.13
2023-02-24T14:18:06.682Z,99735.28
2023-02-24T14:20:37.986Z,99730.06
2023-02-24T14:23:23.147Z,99733.00
2023-02-24T14:25:56.713Z,99727.94
2023-02-24T14:28:28.091Z,99722.69
2023-02-24T14:30:58.979Z,99726.97
2023-02-24T14:33:31.254Z,99721.75
2023-02-24T14:36:01.696Z,99709.00
2023-02-24T14:38:35.665Z,99710.47
2023-02-24T14:41:05.822Z,99705.22
2023-02-24T14:43:33.890Z,99698.44
2023-02-24T14:46:07.042Z,99699.97
2023-02-24T14:48:34.784Z,99691.13
2023-02-24T14:51:08.741Z,99690.75
2023-02-24T14:53:41.550Z,99697.94
2023-02-24T14:56:13.134Z,99691.59
2023-02-24T14:58:45.397Z,99689.56
2023-02-24T15:01:24.038Z,99681.41
2023-02-24T15:03:55.926Z,99669.63
2023-02-24T15:06:28.438Z,99681.56
2023-02-24T15:09:00.184Z,99676.97
2023-02-24T15:11:30.095Z,99667.41
2023-02-24T15:14:00.907Z,99671.91
2023-02-24T15:16:34.381Z,99654.44
2023-02-24T15:19:02.387Z,99654.66
2023-02-24T15:21:34.061Z,99651.84
2023-02-24T15:24:02.558Z,99640.19
2023-02-24T15:26:32.745Z,99629.03
2023-02-24T15:29:03.270Z,99634.22
2023-02-24T15:31:31.730Z,99626.19
2023-02-24T15:34:01.734Z,99625.09
2023-02-24T15:36:34.744Z,99612.78
2023-02-24T15:39:06.567Z,99616.03
2023-02-24T15:41:45.506Z,99613.75
2023-02-24T15:44:27.790Z,99609.25
2023-02-24T15:46:56.176Z,99597.44
2023-02-24T15:49:24.087Z,99597.38
2023-02-24T15:51:54.332Z,99595.75
2023-02-24T15:54:30.235Z,99592.88
2023-02-24T15:57:00.397Z,99585.66
2023-02-24T15:59:29.197Z,99587.56
2023-02-24T16:01:57.482Z,99581.75
2023-02-24T16:04:27.529Z,99582.84
2023-02-24T16:06:58.657Z,99576.09
2023-02-24T16:09:33.601Z,99569.69
2023-02-24T16:12:04.486Z,99578.59
2023-02-24T16:14:33.444Z,99567.06
2023-02-24T16:17:09.936Z,99565.38
2023-02-24T16:19:38.234Z,99563.44
2023-02-24T16:22:07.456Z,99559.44
2023-02-24T16:24:35.273Z,99551.50
2023-02-24T16:27:03.249Z,99553.19
2023-02-24T16:29:31.525Z,99539.56
2023-02-24T16:31:59.690Z,99549.94
2023-02-24T16:34:27.677Z,99547.53
2023-02-24T16:36:55.505Z,99537.38
2023-02-24T16:39:24.924Z,99534.25
2023-02-24T16:41:53.592Z,99541.00
2023-02-24T16:44:23.200Z,99534.72
2023-02-24T16:46:51.117Z,99532.81
2023-02-24T16:49:21.053Z,99526.91
2023-02-24T16:51:48.982Z,99528.56
2023-02-24T16:54:17.040Z,99523.53
2023-02-24T16:56:46.704Z,99528.09
2023-02-24T16:59:14.635Z,99525.94
2023-02-24T17:01:43.304Z,99514.72
2023-02-24T17:04:13.462Z,99518.09
2023-02-24T17:06:41.582Z,99521.22
2023-02-24T17:09:09.475Z,99519.88
2023-02-24T17:11:37.360Z,99510.13
2023-02-24T17:14:06.697Z,99505.31
2023-02-24T17:16:34.655Z,99511.34
2023-02-24T17:19:02.636Z,99514.44
2023-02-24T17:21:30.530Z,99503.38
2023-02-24T17:23:58.377Z,99513.22
2023-02-24T17:26:26.380Z,99505.66
2023-02-24T17:28:54.228Z,99500.72
2023-02-24T17:31:24.061Z,99490.09
2023-02-24T17:33:52.059Z,99493.25
2023-02-24T17:36:20.121Z,99485.53
2023-02-24T17:38:48.121Z,99482.16
2023-02-24T17:41:16.017Z,99493.13
2023-02-24T17:43:43.890Z,99487.19
2023-02-24T17:46:11.778Z,99484.69
2023-02-24T17:48:41.042Z,99484.59
2023-02-24T17:51:09.124Z,99476.13
2023-02-24T17:53:37.013Z,99465.47
2023-02-24T17:56:05.649Z,99459.97
2023-02-24T17:58:34.356Z,99467.22
2023-02-24T18:01:03.282Z,99449.25
2023-02-24T18:03:31.987Z,99456.69
2023-02-24T18:06:03.025Z,99445.22
2023-02-24T18:08:32.870Z,99440.97
2023-02-24T18:11:00.953Z,99442.38
2023-02-24T18:13:30.063Z,99439.34
2023-02-24T18:15:58.199Z,99436.81
2023-02-24T18:18:26.928Z,99425.38
2023-02-24T18:20:58.622Z,99427.38
2023-02-24T18:23:27.851Z,99426.31
2023-02-24T18:25:55.692Z,99427.69
2023-02-24T18:28:23.601Z,99432.44
2023-02-24T18:30:51.598Z,99424.25
2023-02-24T18:33:19.853Z,99421.97
2023-02-24T18:35:47.908Z,99418.66
2023-02-24T18:38:17.640Z,99414.50
2023-02-24T18:40:46.895Z,99406.66
2023-02-24T18:43:14.748Z,99404.22
2023-02-24T18:45:42.557Z,99401.06
2023-02-24T18:48:10.434Z,99398.75
2023-02-24T18:50:38.312Z,99402.41
2023-02-24T18:53:06.258Z,99388.38
2023-02-24T18:55:36.047Z,99393.00
2023-02-24T18:58:05.260Z,99398.66
2023-02-24T19:00:33.120Z,99395.38
2023-02-24T19:03:01.029Z,99386.03
2023-02-24T19:05:37.896Z,99384.78
2023-02-24T19:08:06.556Z,99382.91
2023-02-24T19:10:34.571Z,99378.94
2023-02-24T19:13:02.399Z,99377.53
2023-02-24T19:15:31.728Z,99381.06
2023-02-24T19:18:01.058Z,99374.94
2023-02-24T19:20:29.098Z,99380.59
2023-02-24T19:22:56.946Z,99375.25
2023-02-24T19:25:24.788Z,99368.66
2023-02-24T19:27:54.396Z,99352.22
2023-02-24T19:30:22.440Z,99361.75
2023-02-24T19:32:51.699Z,99351.06
2023-02-24T19:35:19.803Z,99342.78
2023-02-24T19:37:49.131Z,99338.38
2023-02-24T19:40:18.238Z,99341.47
2023-02-24T19:42:47.187Z,99342.13
2023-02-24T19:45:15.100Z,99340.41
2023-02-24T19:47:44.135Z,99339.16
2023-02-24T19:50:14.721Z,99329.31
2023-02-24T19:52:43.244Z,99327.66
2023-02-24T19:55:12.596Z,99332.66
2023-02-24T19:57:40.482Z,99335.00
2023-02-24T20:00:11.543Z,99331.25
2023-02-24T20:02:42.313Z,99319.31
2023-02-24T20:05:10.642Z,99321.97
2023-02-24T20:07:39.992Z,99311.34
2023-02-24T20:10:08.747Z,99312.78
2023-02-24T20:12:36.789Z,99314.28
2023-02-24T20:15:04.890Z,99316.88
2023-02-24T20:17:34.768Z,99313.03
2023-02-24T20:20:02.633Z,99309.97
2023-02-24T20:22:30.539Z,99308.63
2023-02-24T20:24:59.778Z,99312.84
2023-02-24T20:27:27.667Z,99306.19
2023-02-24T20:29:56.965Z,99313.03
2023-02-24T20:32:25.013Z,99300.28
2023-02-24T20:34:53.027Z,99310.19
2023-02-24T20:37:20.926Z,99306.81
2023-02-24T20:39:48.862Z,99305.19
2023-02-24T20:42:18.130Z,99297.63
2023-02-24T20:44:46.034Z,99300.53
2023-02-24T20:47:13.946Z,99303.97
2023-02-24T20:49:41.927Z,99297.25
2023-02-24T20:52:10.176Z,99298.84
2023-02-24T20:54:38.146Z,99292.75
2023-02-24T20:57:08.871Z,99292.59
2023-02-24T20:59:41.583Z,99291.66
2023-02-24T21:02:10.227Z,99281.25
2023-02-24T21:04:38.047Z,99281.16
2023-02-24T21:07:05.963Z,99282.59
2023-02-24T21:09:37.102Z,99271.41
2023-02-24T21:12:06.413Z,99270.44
2023-02-24T21:14:34.731Z,99271.88
2023-02-24T21:17:04.005Z,99267.38
2023-02-24T21:19:31.875Z,99252.16
2023-02-24T21:21:59.738Z,99250.56
2023-02-24T21:24:27.579Z,99247.19
2023-02-24T21:26:55.425Z,99237.72
2023-02-24T21:29:23.340Z,99247.13
2023-02-24T21:31:51.397Z,99251.19
2023-02-24T21:34:20.700Z,99236.88
2023-02-24T21:36:48.619Z,99234.19
2023-02-24T21:39:18.003Z,99233.94
2023-02-24T21:41:45.972Z,99230.03
2023-02-24T21:44:15.311Z,99229.38
2023-02-24T21:46:43.304Z,99225.53
2023-02-24T21:49:14.291Z,99217.91
2023-02-24T21:51:43.603Z,99215.38
2023-02-24T21:54:12.446Z,99212.03
2023-02-24T21:56:40.434Z,99208.97
2023-02-24T21:59:09.898Z,99206.94
2023-02-24T22:01:39.820Z,99203.06
2023-02-24T22:04:10.198Z,99202.84
2023-02-24T22:06:40.205Z,99182.06
2023-02-24T22:09:10.761Z,99188.41
2023-02-24T22:11:40.738Z,99190.78
2023-02-24T22:14:09.815Z,99180.16
2023-02-24T22:16:37.888Z,99175.78
2023-02-24T22:19:05.962Z,99171.63
2023-02-24T22:21:34.355Z,99179.19
2023-02-24T22:24:04.397Z,99168.22
2023-02-24T22:26:34.096Z,99166.16
2023-02-24T22:29:02.402Z,99168.22
2023-02-24T22:31:32.062Z,99162.41
2023-02-24T22:34:00.662Z,99171.53
2023-02-24T22:36:31.059Z,99174.97
2023-02-24T22:39:01.163Z,99175.66
2023-02-24T22:41:31.120Z,99172.16
2023-02-24T22:44:01.447Z,99167.69
2023-02-24T22:46:31.671Z,99160.13
2023-02-24T22:48:59.841Z,99172.44
2023-02-24T22:51:28.357Z,99165.72
2023-02-24T22:53:57.049Z,99159.25
2023-02-24T22:56:26.847Z,99153.94
2023-02-24T22:58:55.293Z,99158.06
2023-02-24T23:01:26.443Z,99145.88
2023-02-24T23:03:54.398Z,99156.59
2023-02-24T23:06:25.991Z,99151.88
2023-02-24T23:08:55.400Z,99161.41
2023-02-24T23:11:27.701Z,99151.97
2023-02-24T23:13:57.671Z,99152.31
2023-02-24T23:16:31.599Z,99152.41
2023-02-24T23:19:01.463Z,99155.91
2023-02-24T23:21:34.767Z,99156.94
2023-02-24T23:24:03.985Z,99139.72
2023-02-24T23:26:34.277Z,99155.13
2023-02-24T23:29:02.617Z,99148.53
2023-02-24T23:31:32.004Z,99138.84
2023-02-24T23:34:02.112Z,99147.78
2023-02-24T23:36:31.047Z,99149.00
2023-02-24T23:38:58.968Z,99143.59
2023-02-24T23:41:26.941Z,99149.44
2023-02-24T23:43:54.853Z,99147.94
2023-02-24T23:46:23.071Z,99148.63
2023-02-24T23:48:53.809Z,99133.91
2023-02-24T23:51:21.978Z,99151.00
2023-02-24T23:53:50.403Z,99135.81
2023-02-24T23:56:21.193Z,99134.63
2023-02-24T23:58:51.688Z,99139.81
